Osg Courageous — WDF7122 — position and weather

sailwx.info

Track history (hours):
 
Tides and Currents Weather Stations Pressure Air Temp Water Temp Dewpoint Dewpoint Depression Visibility Wind Speed Wind Dir Waves Ship Positions

Osg Courageous

Owner: OSG Ship Management, Inc, Tampa, FL. More information available from US FCC via Universal Licensing System and Coast Guard Vessel Documentation Center.

Last reported at 2016-Dec-09 09:18 UTC. Time now 2016-Dec-09 09:48 UTC.
Position N 26°50' W 079°59'.

Length 187 m; draft 8 m.

Type: Tanker. MMSI: 367481310.

Date/timePositionNaut miles runAvg speedWind from/ knotsBaromVisibWave heightAir tempDewpointWater temp
2016-Dec-09 09:18N 26°50' W 079°59'  
2016-Dec-01 22:27N 27°04' W 080°01'910.2
2016-Dec-01 21:33N 26°55' W 080°00'2411.5
2016-Dec-01 19:30N 26°31' W 079°60'1212.9
2016-Dec-01 18:33N 26°19' W 079°60'1413.8
2016-Dec-01 17:33N 26°05' W 080°00'1313.4
2016-Dec-01 16:33N 25°51' W 080°01'1313.3
2016-Dec-01 15:33N 25°38' W 080°01'1313.1
2016-Dec-01 14:33N 25°25' W 080°02'  
Track history (hours):
 
Tides and Currents Weather Stations Pressure Air Temp Water Temp Dewpoint Dewpoint Depression Visibility Wind Speed Wind Dir Waves Ship Positions

Osg Courageous

Owner: OSG Ship Management, Inc, Tampa, FL. More information available from US FCC via Universal Licensing System and Coast Guard Vessel Documentation Center.

Last reported at 2016-Dec-09 09:18 UTC. Time now 2016-Dec-09 09:48 UTC.
Position N 26°50' W 079°59'.

Length 187 m; draft 8 m.

Type: Tanker. MMSI: 367481310.

Date/timePositionNaut miles runAvg speedWind from/ knotsBaromVisibWave heightAir tempDewpointWater temp
2016-Dec-09 09:18N 26°50' W 079°59'  
2016-Dec-01 22:27N 27°04' W 080°01'910.2
2016-Dec-01 21:33N 26°55' W 080°00'2411.5
2016-Dec-01 19:30N 26°31' W 079°60'1212.9
2016-Dec-01 18:33N 26°19' W 079°60'1413.8
2016-Dec-01 17:33N 26°05' W 080°00'1313.4
2016-Dec-01 16:33N 25°51' W 080°01'1313.3
2016-Dec-01 15:33N 25°38' W 080°01'1313.1
2016-Dec-01 14:33N 25°25' W 080°02'  

Dump ship's entire track history